Time;durP1;ratioP1;P1;durP2;ratioP2;P2;SDS_P1;SDS_P2;PMS_P1;PMS_P2;Temp;Humidity;BMP_temperature;BMP_pressure;BME280_temperature;BME280_humidity;BME280_pressure;Samples;Min_cycle;Max_cycle;Signal;HPM_P1;HPM_P2
2023/10/03 00:00:59;;;;;;;46.85;29.52;;;18.40;99.90;;;;;;5026113;28;20152;-55
2023/10/03 00:03:25;;;;;;;44.63;26.85;;;18.40;99.90;;;;;;5006094;28;20130;-57
2023/10/03 00:05:52;;;;;;;47.80;31.05;;;18.40;99.90;;;;;;5017611;28;20276;-56
2023/10/03 00:08:18;;;;;;;44.53;28.15;;;18.40;99.90;;;;;;5026525;28;20037;-57
2023/10/03 00:10:45;;;;;;;41.75;26.48;;;18.40;99.90;;;;;;5027370;28;20091;-56
2023/10/03 00:13:12;;;;;;;47.63;29.42;;;18.40;99.90;;;;;;5025616;28;20041;-56
2023/10/03 00:15:43;;;;;;;51.60;30.60;;;18.40;99.90;;;;;;5021098;28;20408;-56
2023/10/03 00:18:13;;;;;;;46.10;28.52;;;18.40;99.90;;;;;;5024504;28;20053;-55
2023/10/03 00:20:39;;;;;;;44.20;27.70;;;18.40;99.90;;;;;;5006171;28;20050;-56
2023/10/03 00:23:05;;;;;;;44.97;28.10;;;18.40;99.90;;;;;;5037952;28;20051;-56
2023/10/03 00:25:31;;;;;;;51.17;28.05;;;18.40;99.90;;;;;;5025853;28;20076;-56
2023/10/03 00:28:01;;;;;;;46.90;27.88;;;18.40;99.90;;;;;;5004224;28;20029;-56
2023/10/03 00:30:29;;;;;;;47.72;27.48;;;18.50;99.90;;;;;;5022517;28;22373;-54
2023/10/03 00:32:57;;;;;;;52.13;29.25;;;18.40;99.90;;;;;;5020754;28;20055;-57
2023/10/03 00:35:27;;;;;;;50.08;28.35;;;18.50;99.90;;;;;;5041749;28;20036;-57
2023/10/03 00:37:53;;;;;;;44.00;27.08;;;18.50;99.90;;;;;;5036456;28;20102;-56
2023/10/03 00:42:48;;;;;;;44.00;25.92;;;18.40;99.90;;;;;;5023003;28;20139;-56
2023/10/03 00:45:21;;;;;;;47.15;27.45;;;18.40;99.90;;;;;;5025542;28;20041;-56
2023/10/03 00:47:51;;;;;;;40.53;24.00;;;18.40;99.90;;;;;;5019536;28;20059;-56
2023/10/03 00:50:23;;;;;;;42.17;26.35;;;18.40;99.90;;;;;;5021147;28;20041;-56
2023/10/03 00:52:53;;;;;;;47.88;27.65;;;18.40;99.90;;;;;;5008317;28;20397;-57
2023/10/03 00:55:21;;;;;;;41.33;25.20;;;18.40;99.90;;;;;;5023535;28;20120;-55
2023/10/03 00:57:47;;;;;;;42.35;25.02;;;18.40;99.90;;;;;;5007645;28;20041;-57
2023/10/03 01:00:16;;;;;;;44.35;26.63;;;18.40;99.90;;;;;;5026673;28;20036;-56
2023/10/03 01:02:47;;;;;;;42.65;25.50;;;18.40;99.90;;;;;;5023866;28;20051;-57
2023/10/03 01:05:15;;;;;;;43.15;24.13;;;18.50;99.90;;;;;;5037867;28;20120;-57
2023/10/03 01:07:44;;;;;;;38.33;24.88;;;18.40;99.90;;;;;;5038102;28;20138;-56
2023/10/03 01:10:12;;;;;;;44.97;25.23;;;18.50;99.90;;;;;;5043574;28;20397;-57
2023/10/03 01:12:38;;;;;;;40.22;24.35;;;18.40;99.90;;;;;;5040732;28;20047;-57
2023/10/03 01:15:13;;;;;;;43.75;23.60;;;18.50;99.90;;;;;;5023310;28;20033;-57
2023/10/03 01:17:38;;;;;;;40.88;25.65;;;18.50;99.90;;;;;;5040237;28;20045;-56
2023/10/03 01:20:17;;;;;;;43.88;24.30;;;18.40;99.90;;;;;;5007476;28;20052;-55
2023/10/03 01:22:48;;;;;;;42.67;24.70;;;18.40;99.90;;;;;;5024000;28;20048;-56
2023/10/03 01:25:16;;;;;;;44.05;25.58;;;18.40;99.90;;;;;;5041670;28;20057;-57
2023/10/03 01:27:41;;;;;;;42.15;25.45;;;18.40;99.90;;;;;;5023540;28;20748;-56
2023/10/03 01:30:08;;;;;;;37.85;23.15;;;18.40;99.90;;;;;;5031867;28;20039;-57
2023/10/03 01:32:46;;;;;;;37.00;24.35;;;18.30;99.90;;;;;;5033801;28;20505;-55
2023/10/03 01:35:14;;;;;;;39.05;24.35;;;18.40;99.90;;;;;;5034648;28;20409;-57
2023/10/03 01:37:39;;;;;;;41.35;24.90;;;18.30;99.90;;;;;;5017306;28;21166;-57
2023/10/03 01:40:16;;;;;;;41.17;24.80;;;18.30;99.90;;;;;;5022674;28;20045;-57
2023/10/03 01:42:45;;;;;;;39.45;25.05;;;18.30;99.90;;;;;;5017812;28;20135;-57
2023/10/03 01:45:22;;;;;;;45.10;26.48;;;18.30;99.90;;;;;;5023466;28;20044;-57
2023/10/03 01:47:50;;;;;;;44.80;25.45;;;18.30;99.90;;;;;;5022002;28;20051;-57
2023/10/03 01:50:20;;;;;;;45.58;24.65;;;18.30;99.90;;;;;;5024002;28;20052;-57
2023/10/03 01:52:47;;;;;;;46.00;26.35;;;18.30;99.90;;;;;;5039953;28;20043;-57
2023/10/03 01:55:14;;;;;;;42.05;25.25;;;18.30;99.90;;;;;;5036957;28;20440;-57
2023/10/03 01:57:41;;;;;;;40.40;23.13;;;18.20;99.90;;;;;;5021369;28;20191;-55
2023/10/03 02:02:50;;;;;;;40.53;22.50;;;18.20;99.90;;;;;;5021651;28;20068;-57
2023/10/03 02:05:19;;;;;;;39.95;24.00;;;18.20;99.90;;;;;;5010309;28;20112;-57
2023/10/03 02:07:45;;;;;;;37.58;23.08;;;18.20;99.90;;;;;;5025701;28;20041;-56
2023/10/03 02:10:14;;;;;;;45.30;25.02;;;18.20;99.90;;;;;;5026120;28;20107;-57
2023/10/03 02:12:49;;;;;;;38.40;22.70;;;18.20;99.90;;;;;;5025152;28;20508;-57
2023/10/03 02:15:28;;;;;;;38.47;22.02;;;18.20;99.90;;;;;;5025165;28;20577;-56
2023/10/03 02:17:56;;;;;;;38.97;23.40;;;18.10;99.90;;;;;;5026748;28;20060;-56
2023/10/03 02:20:25;;;;;;;42.92;22.30;;;18.10;99.90;;;;;;5027702;28;20100;-57
2023/10/03 02:22:55;;;;;;;38.20;22.83;;;18.10;99.90;;;;;;5026277;28;20052;-57
2023/10/03 02:25:35;;;;;;;39.85;22.88;;;18.10;99.90;;;;;;5025058;28;20053;-57
2023/10/03 02:28:02;;;;;;;39.50;22.60;;;18.10;99.90;;;;;;5020004;28;20053;-57
2023/10/03 02:30:30;;;;;;;41.58;22.83;;;18.10;99.90;;;;;;5027215;28;20039;-56
2023/10/03 02:32:57;;;;;;;40.65;20.85;;;18.10;99.90;;;;;;5045360;28;20045;-56
2023/10/03 02:35:25;;;;;;;37.63;21.20;;;18.10;99.90;;;;;;5020108;28;20060;-56
2023/10/03 02:37:52;;;;;;;36.53;20.88;;;18.10;99.90;;;;;;5023803;28;20272;-54
2023/10/03 02:40:22;;;;;;;39.30;21.60;;;18.10;99.90;;;;;;5023815;28;20036;-56
2023/10/03 02:42:51;;;;;;;34.97;20.20;;;18.10;99.90;;;;;;5019517;28;20036;-57
2023/10/03 02:45:19;;;;;;;38.72;20.60;;;18.20;99.90;;;;;;5022693;28;20288;-57
2023/10/03 02:47:45;;;;;;;38.42;21.52;;;18.20;99.90;;;;;;5024745;28;20096;-56
2023/10/03 02:50:14;;;;;;;37.20;20.70;;;18.30;99.90;;;;;;5020207;28;20037;-57
2023/10/03 02:52:40;;;;;;;38.80;21.17;;;18.20;99.90;;;;;;5040816;28;20492;-57
2023/10/03 02:55:12;;;;;;;37.70;20.08;;;18.20;99.90;;;;;;5017925;28;20632;-56
2023/10/03 02:57:40;;;;;;;35.05;19.75;;;18.30;99.90;;;;;;5005631;28;21361;-57
2023/10/03 03:00:16;;;;;;;36.75;20.17;;;18.30;99.90;;;;;;5008118;28;20049;-55
2023/10/03 03:02:47;;;;;;;38.75;21.08;;;18.30;99.90;;;;;;5020424;28;20072;-57
2023/10/03 03:05:16;;;;;;;33.38;18.92;;;18.30;99.90;;;;;;5021876;28;20037;-56
2023/10/03 03:07:47;;;;;;;40.17;20.98;;;18.40;99.90;;;;;;5017467;28;20469;-57
2023/10/03 03:10:14;;;;;;;33.40;18.48;;;18.40;99.90;;;;;;5011045;28;20404;-56
2023/10/03 03:12:44;;;;;;;36.65;20.23;;;18.40;99.90;;;;;;5019466;28;20037;-57
2023/10/03 03:15:23;;;;;;;35.83;19.42;;;18.40;99.90;;;;;;5021092;28;20135;-57
2023/10/03 03:17:53;;;;;;;40.10;20.10;;;18.40;99.90;;;;;;5013711;28;20060;-57
2023/10/03 03:20:36;;;;;;;36.00;19.75;;;18.40;99.90;;;;;;5023771;28;20036;-56
2023/10/03 03:23:03;;;;;;;37.95;20.33;;;18.40;99.90;;;;;;5023198;28;20041;-57
2023/10/03 03:25:49;;;;;;;37.03;19.77;;;18.40;99.90;;;;;;5006482;28;20049;-56
2023/10/03 03:28:15;;;;;;;31.85;18.40;;;18.40;99.90;;;;;;5011700;28;20052;-57
2023/10/03 03:30:55;;;;;;;34.05;17.98;;;18.40;99.90;;;;;;5024098;28;20041;-57
2023/10/03 03:33:25;;;;;;;35.83;19.10;;;18.40;99.90;;;;;;5039782;28;20435;-57
2023/10/03 03:35:50;;;;;;;34.17;18.88;;;18.40;99.90;;;;;;5018227;28;20124;-58
2023/10/03 03:38:18;;;;;;;33.92;18.40;;;18.50;99.90;;;;;;5025305;28;20565;-57
2023/10/03 03:40:56;;;;;;;37.58;19.67;;;18.50;99.90;;;;;;5025613;28;20413;-57
2023/10/03 03:43:22;;;;;;;36.45;19.05;;;18.50;99.90;;;;;;5024400;28;20131;-57
2023/10/03 03:45:48;;;;;;;31.00;18.73;;;18.50;99.90;;;;;;5017874;28;20044;-57
2023/10/03 03:48:14;;;;;;;35.50;19.02;;;18.50;99.90;;;;;;5014986;28;20069;-56
2023/10/03 03:50:43;;;;;;;35.35;18.45;;;18.50;99.90;;;;;;5021560;28;20464;-57
2023/10/03 03:53:10;;;;;;;35.47;18.58;;;18.50;99.90;;;;;;5020969;28;20491;-57
2023/10/03 03:55:37;;;;;;;35.35;19.10;;;18.50;99.90;;;;;;5027465;28;20471;-57
2023/10/03 03:58:18;;;;;;;30.42;17.60;;;18.50;99.90;;;;;;5024924;28;20412;-57
2023/10/03 04:00:48;;;;;;;33.28;17.25;;;18.50;99.90;;;;;;5025160;28;20094;-57
2023/10/03 04:03:20;;;;;;;35.35;18.08;;;18.50;99.90;;;;;;5024495;28;20124;-56
2023/10/03 04:05:47;;;;;;;35.15;18.25;;;18.50;99.90;;;;;;5016798;28;20297;-56
2023/10/03 04:08:12;;;;;;;33.97;17.70;;;18.50;99.90;;;;;;5021018;28;20059;-57
2023/10/03 04:10:38;;;;;;;32.67;16.95;;;18.50;99.90;;;;;;5004868;28;20400;-59
2023/10/03 04:13:10;;;;;;;29.98;17.83;;;18.50;99.90;;;;;;5020679;28;20045;-59
2023/10/03 04:15:38;;;;;;;30.83;17.65;;;18.50;99.90;;;;;;5021867;28;20052;-59
2023/10/03 04:18:04;;;;;;;31.17;16.45;;;18.50;99.90;;;;;;5021436;28;20533;-59
2023/10/03 04:20:35;;;;;;;31.08;16.90;;;18.60;99.90;;;;;;5023088;28;20586;-57
2023/10/03 04:23:05;;;;;;;29.58;15.95;;;18.60;99.90;;;;;;5020288;28;20049;-56
2023/10/03 04:25:33;;;;;;;30.65;16.38;;;18.70;99.90;;;;;;5040211;28;20041;-56
2023/10/03 04:27:59;;;;;;;31.98;15.80;;;18.80;99.90;;;;;;5011840;28;20091;-56
2023/10/03 04:30:26;;;;;;;31.60;15.50;;;18.90;99.90;;;;;;5025857;28;20044;-56
2023/10/03 04:32:54;;;;;;;27.23;14.73;;;18.90;99.90;;;;;;5022447;28;20073;-55
2023/10/03 04:35:21;;;;;;;31.17;16.17;;;19.00;99.90;;;;;;5022689;28;21488;-55
2023/10/03 04:37:52;;;;;;;29.73;14.15;;;19.10;99.90;;;;;;5043299;28;20037;-57
2023/10/03 04:40:22;;;;;;;29.05;16.05;;;19.10;99.90;;;;;;5010179;28;20045;-55
2023/10/03 04:42:53;;;;;;;34.55;15.48;;;19.10;99.90;;;;;;5024307;28;20041;-57
2023/10/03 04:45:20;;;;;;;33.20;15.80;;;19.10;99.90;;;;;;5023443;28;20048;-57
2023/10/03 04:47:49;;;;;;;30.73;15.05;;;19.20;99.90;;;;;;5023890;28;20049;-55
2023/10/03 04:50:19;;;;;;;35.08;15.98;;;19.20;99.90;;;;;;5017867;28;20378;-56
2023/10/03 04:52:49;;;;;;;35.33;15.48;;;19.20;99.90;;;;;;5014470;28;20111;-55
2023/10/03 04:55:18;;;;;;;31.60;15.75;;;19.30;99.90;;;;;;5045427;28;20141;-56
2023/10/03 04:57:46;;;;;;;38.15;16.77;;;19.30;99.90;;;;;;5022663;28;20049;-55
2023/10/03 05:00:16;;;;;;;31.08;15.85;;;19.30;99.90;;;;;;5028872;28;20040;-57
2023/10/03 05:02:49;;;;;;;38.67;16.23;;;19.40;99.90;;;;;;5027454;28;20405;-56
2023/10/03 05:05:20;;;;;;;38.67;16.85;;;19.40;99.90;;;;;;5010734;28;20059;-57
2023/10/03 05:07:52;;;;;;;38.78;16.63;;;19.40;99.90;;;;;;5031124;28;20049;-57
2023/10/03 05:10:21;;;;;;;38.92;17.75;;;19.40;99.90;;;;;;5024370;28;20033;-56
2023/10/03 05:12:50;;;;;;;39.95;17.95;;;19.40;99.90;;;;;;5028754;28;20519;-55
2023/10/03 05:15:16;;;;;;;41.72;18.50;;;19.40;99.90;;;;;;5025177;28;20041;-56
2023/10/03 05:17:46;;;;;;;42.25;19.25;;;19.40;99.90;;;;;;5027572;28;20040;-56
2023/10/03 05:20:13;;;;;;;39.85;19.65;;;19.40;99.90;;;;;;5019861;28;20052;-57
2023/10/03 05:22:45;;;;;;;39.05;19.63;;;19.40;99.90;;;;;;5023418;28;20512;-57
2023/10/03 05:25:12;;;;;;;43.38;19.10;;;19.40;99.90;;;;;;5026592;28;20041;-55
2023/10/03 05:27:42;;;;;;;44.33;21.02;;;19.40;99.90;;;;;;5027477;28;20090;-55
2023/10/03 05:30:09;;;;;;;48.42;20.80;;;19.30;99.90;;;;;;5031543;28;20052;-55
2023/10/03 05:32:36;;;;;;;49.95;21.30;;;19.30;99.90;;;;;;5037611;28;20049;-56
2023/10/03 05:35:05;;;;;;;44.50;20.45;;;19.30;99.90;;;;;;5042305;28;20103;-56
2023/10/03 05:37:33;;;;;;;44.22;20.98;;;19.30;99.90;;;;;;5026332;28;20075;-57
2023/10/03 05:40:11;;;;;;;40.20;19.50;;;19.30;99.90;;;;;;5027149;28;20136;-56
2023/10/03 05:42:41;;;;;;;36.20;19.42;;;19.30;99.90;;;;;;5021416;28;20057;-57
2023/10/03 05:45:17;;;;;;;34.15;19.40;;;19.20;99.90;;;;;;5022510;28;20298;-57
2023/10/03 05:47:45;;;;;;;37.50;19.45;;;19.20;99.90;;;;;;5022543;28;20402;-57
2023/10/03 05:50:16;;;;;;;37.85;18.58;;;19.10;99.90;;;;;;5022693;28;20061;-57
2023/10/03 05:52:45;;;;;;;38.42;18.83;;;19.20;99.90;;;;;;5022998;28;20094;-56
2023/10/03 05:55:12;;;;;;;33.63;18.55;;;19.20;99.90;;;;;;5035323;28;20049;-57
2023/10/03 05:57:39;;;;;;;36.53;17.02;;;19.10;99.90;;;;;;5017144;28;20044;-56
2023/10/03 06:00:09;;;;;;;33.47;17.90;;;19.10;99.90;;;;;;5016615;28;20104;-56
2023/10/03 06:02:39;;;;;;;33.40;17.60;;;19.10;99.90;;;;;;5043967;28;20040;-55
2023/10/03 06:05:08;;;;;;;38.35;18.80;;;19.10;99.90;;;;;;5015499;28;20504;-56
2023/10/03 06:07:38;;;;;;;27.25;16.77;;;19.10;99.90;;;;;;5030545;28;20492;-56
2023/10/03 06:10:04;;;;;;;27.38;16.33;;;19.00;99.90;;;;;;5046257;28;20041;-57
2023/10/03 06:12:31;;;;;;;30.17;17.20;;;19.00;99.90;;;;;;5028571;28;20355;-56
2023/10/03 06:14:57;;;;;;;27.02;15.40;;;19.00;99.90;;;;;;5046909;28;20056;-57
2023/10/03 06:17:23;;;;;;;29.17;16.63;;;19.00;99.90;;;;;;5040105;28;20037;-57
2023/10/03 06:19:50;;;;;;;28.02;17.50;;;19.00;99.90;;;;;;5048226;28;20041;-57
2023/10/03 06:22:17;;;;;;;30.65;17.00;;;18.90;99.90;;;;;;5011369;28;20032;-56
2023/10/03 06:24:43;;;;;;;31.27;16.20;;;18.90;99.90;;;;;;5007560;28;20037;-56
2023/10/03 06:27:10;;;;;;;30.75;16.63;;;18.90;99.90;;;;;;5020812;28;20053;-56
2023/10/03 06:29:39;;;;;;;31.27;16.65;;;18.90;99.90;;;;;;5018338;28;20704;-56
2023/10/03 06:32:05;;;;;;;26.17;16.05;;;18.90;99.90;;;;;;5021099;28;20045;-55
2023/10/03 06:34:30;;;;;;;30.17;16.70;;;18.90;99.90;;;;;;5000072;28;20033;-57
2023/10/03 06:36:56;;;;;;;30.65;16.58;;;18.80;99.90;;;;;;5002775;28;20627;-55
2023/10/03 06:39:22;;;;;;;38.67;16.55;;;18.80;99.90;;;;;;5022180;28;20554;-56
2023/10/03 06:41:47;;;;;;;38.15;14.68;;;18.70;99.90;;;;;;5025138;28;20046;-57
2023/10/03 06:44:14;;;;;;;37.38;14.15;;;18.70;99.90;;;;;;5009300;28;20532;-56
2023/10/03 06:46:42;;;;;;;41.63;12.80;;;18.60;99.90;;;;;;5026743;28;20052;-56
2023/10/03 06:49:10;;;;;;;31.90;10.52;;;18.50;99.90;;;;;;5010618;28;20094;-56
2023/10/03 06:51:36;;;;;;;30.23;10.80;;;18.40;99.90;;;;;;5016848;28;20452;-56
2023/10/03 06:54:03;;;;;;;32.50;10.00;;;18.30;99.90;;;;;;4992893;28;20079;-55
2023/10/03 06:56:32;;;;;;;28.23;9.35;;;18.30;99.90;;;;;;5030086;28;20048;-57
2023/10/03 06:58:59;;;;;;;27.27;8.48;;;18.10;99.90;;;;;;5025757;28;20045;-55
2023/10/03 07:01:25;;;;;;;26.98;7.45;;;18.00;99.90;;;;;;5018104;28;20596;-56
2023/10/03 07:03:53;;;;;;;18.55;7.30;;;17.90;99.90;;;;;;5023217;28;20123;-57
2023/10/03 07:06:19;;;;;;;25.48;8.63;;;17.90;99.90;;;;;;5021153;28;20099;-56
2023/10/03 07:08:45;;;;;;;21.55;6.93;;;17.80;99.90;;;;;;5031343;28;20045;-55
2023/10/03 07:11:12;;;;;;;21.38;7.50;;;17.70;99.90;;;;;;5021855;28;20132;-56
2023/10/03 07:13:39;;;;;;;24.48;6.85;;;17.80;99.90;;;;;;5026666;28;20047;-55
2023/10/03 07:16:04;;;;;;;16.95;5.95;;;17.80;99.90;;;;;;5022706;28;20048;-57
2023/10/03 07:18:31;;;;;;;15.30;4.97;;;17.70;99.90;;;;;;5010710;28;20048;-57
2023/10/03 07:20:56;;;;;;;22.17;5.63;;;17.60;99.90;;;;;;5042643;28;20314;-57
2023/10/03 07:23:23;;;;;;;19.15;6.63;;;17.60;99.90;;;;;;5008974;28;20064;-59
2023/10/03 07:25:49;;;;;;;17.77;4.68;;;17.50;99.90;;;;;;5024531;28;20432;-59
2023/10/03 07:28:14;;;;;;;18.00;4.28;;;17.50;99.90;;;;;;5026957;28;20041;-59
2023/10/03 07:30:41;;;;;;;15.68;4.05;;;17.30;99.90;;;;;;5038441;28;20114;-58
2023/10/03 07:33:08;;;;;;;13.00;3.72;;;17.20;99.90;;;;;;5023826;28;20048;-57
2023/10/03 07:35:36;;;;;;;12.57;3.50;;;17.10;99.90;;;;;;5006907;28;20037;-58
2023/10/03 07:38:02;;;;;;;16.33;3.45;;;17.00;99.90;;;;;;5022051;28;20048;-58
2023/10/03 07:40:27;;;;;;;11.07;2.78;;;16.90;99.90;;;;;;5038593;28;20492;-59
2023/10/03 07:42:53;;;;;;;13.90;2.75;;;16.80;99.90;;;;;;5021960;28;20143;-59
2023/10/03 07:45:19;;;;;;;11.90;3.30;;;16.80;99.90;;;;;;5024862;28;20056;-59
2023/10/03 07:47:46;;;;;;;15.60;2.83;;;16.80;99.90;;;;;;5039893;28;20033;-58
2023/10/03 07:50:13;;;;;;;11.10;3.00;;;16.70;99.90;;;;;;5027612;28;20516;-57
2023/10/03 07:52:40;;;;;;;11.25;2.30;;;16.70;99.90;;;;;;5025523;28;20037;-57
2023/10/03 07:55:07;;;;;;;8.15;2.10;;;16.70;99.90;;;;;;5024382;28;20045;-58
2023/10/03 07:57:33;;;;;;;12.73;2.85;;;16.70;99.90;;;;;;5025872;28;20061;-59
2023/10/03 07:59:58;;;;;;;13.93;2.47;;;16.60;99.90;;;;;;5021445;28;20057;-59
2023/10/03 08:02:32;;;;;;;11.57;2.70;;;16.60;99.90;;;;;;5022696;28;20137;-59
2023/10/03 08:05:01;;;;;;;9.93;2.13;;;16.70;99.90;;;;;;5019207;28;20126;-59
2023/10/03 08:07:27;;;;;;;8.63;2.22;;;16.70;99.90;;;;;;5000658;28;20037;-59
2023/10/03 08:09:54;;;;;;;8.77;2.15;;;16.70;99.90;;;;;;5017741;28;20404;-59
2023/10/03 08:12:26;;;;;;;8.63;1.83;;;16.80;99.90;;;;;;5020996;28;20041;-58
2023/10/03 08:14:53;;;;;;;6.72;1.63;;;16.80;99.90;;;;;;5023633;28;20167;-59
2023/10/03 08:17:31;;;;;;;6.70;1.50;;;16.80;99.90;;;;;;5022291;28;20396;-57
2023/10/03 08:20:03;;;;;;;8.43;2.03;;;16.80;99.90;;;;;;5016153;28;20052;-58
2023/10/03 08:22:28;;;;;;;9.65;1.77;;;16.70;99.90;;;;;;5003679;28;20114;-57
2023/10/03 08:24:54;;;;;;;7.63;1.60;;;16.70;99.90;;;;;;5022032;28;20049;-57
2023/10/03 08:27:21;;;;;;;6.40;1.27;;;16.60;99.90;;;;;;5017289;28;20093;-58
2023/10/03 08:29:50;;;;;;;14.75;1.40;;;16.30;99.90;;;;;;5020720;28;20045;-59
2023/10/03 08:32:17;;;;;;;3.90;0.68;;;16.10;99.90;;;;;;5018193;28;20132;-59
2023/10/03 08:34:46;;;;;;;5.10;1.17;;;16.00;99.90;;;;;;5021256;28;20040;-59
2023/10/03 08:37:21;;;;;;;9.70;1.35;;;16.00;99.90;;;;;;5027028;28;20052;-58
2023/10/03 08:39:51;;;;;;;6.72;1.58;;;16.00;99.90;;;;;;5040765;28;20514;-59
2023/10/03 08:42:39;;;;;;;6.22;1.98;;;16.00;99.90;;;;;;5025012;28;20105;-59
2023/10/03 08:45:17;;;;;;;8.32;1.10;;;16.00;99.90;;;;;;5026883;28;20063;-58
2023/10/03 08:47:48;;;;;;;7.03;1.20;;;15.80;99.90;;;;;;5010890;28;20111;-59
2023/10/03 08:50:33;;;;;;;6.70;1.13;;;15.70;99.90;;;;;;5023611;28;20428;-59
2023/10/03 08:53:19;;;;;;;4.20;0.95;;;15.50;99.90;;;;;;5024708;28;20404;-59
2023/10/03 08:55:46;;;;;;;4.85;0.77;;;15.50;99.90;;;;;;5030137;28;20087;-59
2023/10/03 08:58:14;;;;;;;3.90;0.88;;;15.50;99.90;;;;;;5006287;28;20479;-58
2023/10/03 09:00:48;;;;;;;4.72;1.10;;;15.60;99.90;;;;;;4981130;28;20124;-59
2023/10/03 09:03:16;;;;;;;4.22;1.00;;;15.50;99.90;;;;;;5045172;28;20392;-59
2023/10/03 09:05:42;;;;;;;5.13;1.02;;;15.50;99.90;;;;;;5024570;28;20505;-59
2023/10/03 09:08:12;;;;;;;4.82;1.10;;;15.40;99.90;;;;;;5024497;28;20036;-59
2023/10/03 09:10:55;;;;;;;2.60;0.73;;;15.50;99.90;;;;;;5018563;28;20047;-58
2023/10/03 09:13:27;;;;;;;4.75;0.85;;;15.50;99.90;;;;;;5026796;28;20033;-58
2023/10/03 09:16:02;;;;;;;4.45;0.93;;;15.60;99.90;;;;;;5013785;28;20498;-59
2023/10/03 09:18:40;;;;;;;5.35;1.10;;;15.70;99.90;;;;;;5026757;28;20128;-59
2023/10/03 09:21:06;;;;;;;7.13;1.40;;;15.70;99.90;;;;;;5015606;28;20036;-59
2023/10/03 09:23:39;;;;;;;4.60;1.02;;;15.70;99.90;;;;;;5019256;28;20501;-57
2023/10/03 09:26:08;;;;;;;6.80;1.42;;;15.80;99.90;;;;;;4994990;28;20041;-58
2023/10/03 09:28:40;;;;;;;9.38;1.75;;;15.80;99.90;;;;;;5007365;28;20047;-58
2023/10/03 09:31:09;;;;;;;6.75;1.10;;;15.70;99.90;;;;;;5012457;28;20115;-59
2023/10/03 09:33:39;;;;;;;7.25;1.48;;;15.70;99.90;;;;;;5025877;28;20068;-60
2023/10/03 09:36:06;;;;;;;5.78;1.42;;;15.70;99.90;;;;;;5007958;28;20416;-57
2023/10/03 09:38:47;;;;;;;7.32;1.40;;;15.80;99.90;;;;;;5014661;28;20044;-59
2023/10/03 09:41:17;;;;;;;5.60;1.20;;;15.70;99.90;;;;;;5019494;28;20366;-59
2023/10/03 09:43:54;;;;;;;4.55;1.40;;;15.80;99.90;;;;;;5022965;28;20036;-59
2023/10/03 09:46:38;;;;;;;6.90;1.23;;;15.90;99.90;;;;;;5031036;28;20051;-59
2023/10/03 09:49:08;;;;;;;5.05;1.45;;;15.90;99.90;;;;;;5017581;28;20106;-59
2023/10/03 09:51:47;;;;;;;5.65;1.20;;;15.90;99.90;;;;;;5018009;28;20044;-59
2023/10/03 09:54:30;;;;;;;6.47;1.95;;;16.00;99.90;;;;;;5012777;28;20032;-59
2023/10/03 09:56:57;;;;;;;8.63;1.97;;;16.00;99.90;;;;;;5026413;28;20098;-59
2023/10/03 09:59:24;;;;;;;8.23;1.90;;;16.00;99.90;;;;;;5023905;28;20080;-59
2023/10/03 10:01:55;;;;;;;9.95;1.80;;;16.10;99.90;;;;;;5044087;28;20045;-59
2023/10/03 10:04:22;;;;;;;5.57;1.83;;;16.10;99.90;;;;;;5024361;28;20671;-59
2023/10/03 10:07:01;;;;;;;9.48;1.83;;;16.10;99.90;;;;;;4999842;28;20187;-59
2023/10/03 10:09:32;;;;;;;5.43;1.70;;;16.10;99.90;;;;;;5022606;28;20051;-58
2023/10/03 10:12:21;;;;;;;9.85;1.75;;;16.00;99.90;;;;;;5028676;28;20052;-59
2023/10/03 10:15:26;;;;;;;7.80;2.22;;;16.00;99.90;;;;;;5020288;28;20081;-60
2023/10/03 10:17:52;;;;;;;10.18;1.52;;;16.00;99.90;;;;;;5026995;28;20052;-59
2023/10/03 10:20:32;;;;;;;7.05;1.70;;;15.80;99.90;;;;;;5022429;28;20052;-59
2023/10/03 10:22:58;;;;;;;10.55;1.73;;;15.60;99.90;;;;;;5008529;28;20043;-59
2023/10/03 10:25:28;;;;;;;32.08;4.20;;;15.50;99.90;;;;;;5023819;28;20040;-59
2023/10/03 10:28:07;;;;;;;13.07;2.10;;;15.50;99.90;;;;;;5021949;28;21252;-57
2023/10/03 10:30:38;;;;;;;13.95;2.28;;;15.50;99.90;;;;;;5005484;28;20041;-59
2023/10/03 10:33:16;;;;;;;11.25;2.05;;;15.40;99.90;;;;;;5041667;28;20036;-59
2023/10/03 10:35:56;;;;;;;13.60;2.05;;;15.40;99.90;;;;;;5018202;28;20565;-59
2023/10/03 10:38:31;;;;;;;4.30;1.48;;;15.20;99.90;;;;;;5018318;28;20044;-58
2023/10/03 10:41:21;;;;;;;6.15;1.40;;;15.20;99.90;;;;;;5026639;28;20045;-58
2023/10/03 10:44:06;;;;;;;4.75;1.45;;;15.10;99.90;;;;;;5027421;28;20150;-56
2023/10/03 10:46:43;;;;;;;7.40;1.85;;;15.10;99.90;;;;;;5024534;28;20049;-58
2023/10/03 10:49:30;;;;;;;5.97;1.67;;;14.90;99.90;;;;;;5025859;28;20442;-56
2023/10/03 10:51:57;;;;;;;5.72;1.88;;;14.90;99.90;;;;;;5008413;28;20033;-58
2023/10/03 10:54:24;;;;;;;8.80;1.73;;;14.90;99.90;;;;;;5020244;28;20207;-60
2023/10/03 10:57:00;;;;;;;7.60;1.75;;;14.80;99.90;;;;;;5020686;28;20123;-58
2023/10/03 10:59:36;;;;;;;7.78;2.47;;;14.70;99.90;;;;;;5020425;28;20049;-59
2023/10/03 11:02:06;;;;;;;10.18;2.03;;;14.70;99.90;;;;;;5022095;28;20067;-59
2023/10/03 11:04:34;;;;;;;9.68;2.88;;;14.80;99.90;;;;;;5024476;28;20057;-58
2023/10/03 11:07:00;;;;;;;7.68;2.35;;;14.80;99.90;;;;;;5023292;28;20052;-59
2023/10/03 11:09:26;;;;;;;7.32;2.88;;;14.80;99.90;;;;;;5035536;28;20037;-58
2023/10/03 11:11:52;;;;;;;9.65;3.08;;;14.70;99.90;;;;;;4990491;28;20556;-58
2023/10/03 11:14:28;;;;;;;8.93;2.85;;;14.60;99.90;;;;;;5019892;28;20127;-59
2023/10/03 11:16:55;;;;;;;11.52;3.33;;;14.50;99.90;;;;;;5026007;28;20504;-59
2023/10/03 11:19:21;;;;;;;10.73;2.70;;;14.50;99.90;;;;;;5024299;28;20041;-59
2023/10/03 11:21:48;;;;;;;8.77;2.80;;;14.50;99.90;;;;;;5018785;28;20045;-59
2023/10/03 11:24:19;;;;;;;9.48;2.85;;;14.50;99.90;;;;;;5007498;28;20044;-57
2023/10/03 11:26:53;;;;;;;9.30;2.78;;;14.60;99.90;;;;;;5029021;28;20277;-60
2023/10/03 11:29:37;;;;;;;;;;;14.60;99.90;;;;;;5016688;28;20119;-59
2023/10/03 11:32:04;;;;;;;10.70;2.90;;;14.70;99.90;;;;;;5023807;28;20388;-58
2023/10/03 11:34:32;;;;;;;8.95;3.00;;;14.60;99.90;;;;;;5022881;28;20041;-58
2023/10/03 11:36:58;;;;;;;9.88;2.70;;;14.70;99.90;;;;;;5002871;28;20094;-59
2023/10/03 11:39:26;;;;;;;15.45;3.83;;;14.70;99.90;;;;;;5023189;28;20260;-60
2023/10/03 11:41:52;;;;;;;7.75;3.20;;;14.80;99.90;;;;;;5037228;28;20449;-59
2023/10/03 11:44:21;;;;;;;17.52;4.78;;;14.90;99.90;;;;;;5041373;28;20115;-59
2023/10/03 11:46:48;;;;;;;10.13;2.78;;;14.90;99.90;;;;;;5010183;28;20086;-60
2023/10/03 11:49:15;;;;;;;10.55;2.72;;;15.00;99.90;;;;;;5021191;28;20060;-60
2023/10/03 11:51:45;;;;;;;10.80;3.38;;;15.00;99.90;;;;;;5023419;28;20120;-59
2023/10/03 11:54:14;;;;;;;9.82;2.67;;;15.10;99.90;;;;;;5026678;28;20045;-58
2023/10/03 11:56:44;;;;;;;9.48;2.75;;;15.10;99.90;;;;;;5009554;28;20032;-58
2023/10/03 11:59:14;;;;;;;10.02;2.90;;;15.10;99.90;;;;;;5024348;28;20051;-58
2023/10/03 12:01:56;;;;;;;7.85;2.15;;;15.30;99.90;;;;;;5022441;28;20081;-59
2023/10/03 12:04:23;;;;;;;8.73;2.20;;;15.40;99.90;;;;;;5013103;28;20047;-59
2023/10/03 12:06:49;;;;;;;14.23;2.30;;;15.50;99.90;;;;;;5018852;28;20045;-58
2023/10/03 12:09:17;;;;;;;10.68;2.47;;;15.50;99.90;;;;;;5026766;28;20131;-57
2023/10/03 12:11:43;;;;;;;8.60;2.30;;;15.60;99.90;;;;;;5022214;28;20048;-58
2023/10/03 12:14:09;;;;;;;9.73;2.47;;;15.70;99.90;;;;;;5024789;28;20037;-58
2023/10/03 12:16:38;;;;;;;9.45;2.20;;;15.60;99.90;;;;;;5023489;28;20766;-59
2023/10/03 12:19:05;;;;;;;12.48;3.17;;;15.70;99.90;;;;;;5004582;28;20051;-59
2023/10/03 12:21:31;;;;;;;11.60;3.17;;;15.70;99.90;;;;;;5023970;28;20077;-59
2023/10/03 12:23:57;;;;;;;14.93;2.90;;;15.60;99.90;;;;;;5019272;28;20104;-59
2023/10/03 12:26:24;;;;;;;13.75;2.58;;;15.70;99.90;;;;;;5002481;28;20037;-59
2023/10/03 12:28:52;;;;;;;9.60;2.67;;;15.70;99.90;;;;;;5021716;28;20045;-59
2023/10/03 12:31:25;;;;;;;10.43;2.30;;;15.70;99.90;;;;;;5023302;28;20508;-58
2023/10/03 12:33:52;;;;;;;9.00;1.60;;;15.80;99.90;;;;;;5027761;28;20124;-58
2023/10/03 12:36:18;;;;;;;9.93;2.60;;;15.80;99.90;;;;;;5023999;28;20045;-59
2023/10/03 12:38:44;;;;;;;12.15;2.60;;;15.90;99.90;;;;;;5010657;28;20103;-57
2023/10/03 12:41:09;;;;;;;11.07;2.13;;;15.90;99.90;;;;;;5027342;28;20045;-58
2023/10/03 12:43:37;;;;;;;5.63;1.83;;;15.90;99.90;;;;;;5024497;28;20583;-59
2023/10/03 12:46:04;;;;;;;8.45;2.20;;;16.00;99.90;;;;;;5027131;28;20037;-59
2023/10/03 12:48:33;;;;;;;12.32;2.65;;;16.00;99.90;;;;;;5012106;28;20037;-59
2023/10/03 12:50:58;;;;;;;12.00;2.40;;;16.00;99.90;;;;;;5033154;28;20041;-58
2023/10/03 12:53:24;;;;;;;9.45;2.70;;;16.00;99.90;;;;;;5025879;28;20658;-58